Nearby METAR Reports

 

KEDC - Austin Exec, Texas, USA
Distance from station: SSE 10mi, 17km
Updated: Mon, 12-Apr-2021 10:35am CDT
Haze, Overcast
Haze, Overcast
 Wind from SSW
Wind: SSW 14 mph , 22 km/h, Gust: 20 mph , 31 km/h
Temperature: 72°F , 22°C
Dew Point: 63°F , 17°C
Humidity: 73%
Barometer: 29.82 inHg , 1009.8 hPa
Summary: Haze
Clouds: Overcast
Visibility: 6 miles , 10 km
Cloud details: Overcast 1800 ft
2021/04/12 15:35 KEDC 121535Z AUTO 20012G17KT 6SM HZ OVC018 22/17 A2982 RMK AO2
KGTU - Georgetown, Texas, USA
Distance from station: NNW 11mi, 17km
Updated: Mon, 12-Apr-2021 10:48am CDT
Mostly cloudy
Mostly cloudy
 Wind from SSW
Wind: SSW 14 mph , 22 km/h, Gust: 20 mph , 31 km/h
Temperature: 73°F , 23°C
Dew Point: 61°F , 16°C
Humidity: 65%
Barometer: 29.86 inHg , 1011.2 hPa
Clouds: Mostly cloudy
Visibility: 9 miles , 14 km
Cloud details: Mostly cloudy 2200 ft
2021/04/12 15:48 KGTU 121548Z 21012G17KT 9SM BKN022 23/16 A2986 RMK AO2
 
KATT - Austin/Mabry, Texas, USA
Distance from station: SSW 18mi, 30km
Updated: Mon, 12-Apr-2021 10:35am CDT
Overcast
Overcast
 Wind from varies
Wind: varies 7 mph , 11 km/h
Temperature: 73°F , 23°C
Dew Point: 61°F , 16°C
Humidity: 65%
Barometer: 29.83 inHg , 1010.2 hPa
Clouds: Overcast
Visibility: 10 miles , 16 km
Cloud details: Overcast 2200 ft
2021/04/12 15:35 KATT 121535Z AUTO VRB06KT 10SM OVC022 23/16 A2983 RMK AO2 T02280161 $
KRYW - Lago Vista, Texas, USA
Distance from station: W 22mi, 35km
Updated: Mon, 12-Apr-2021 10:35am CDT
Overcast
Overcast
 Wind from SSW
Wind: SSW 10 mph , 17 km/h, Gust: 20 mph , 31 km/h
Temperature: 70°F , 21°C
Dew Point: 61°F , 16°C
Humidity: 73%
Barometer: 29.84 inHg , 1010.5 hPa
Clouds: Overcast
Visibility: 10 miles , 16 km
Cloud details: Overcast 1700 ft
2021/04/12 15:35 KRYW 121535Z AUTO 20009G17KT 10SM OVC017 21/16 A2984 RMK AO2 T02100160
 
KAUS - Austin, Texas, USA
Distance from station: S 25mi, 41km
Updated: Mon, 12-Apr-2021 9:53am CDT
Overcast
Overcast
 Wind from S
Wind: S 10 mph , 17 km/h, Gust: 24 mph , 39 km/h
Temperature: 70°F , 21°C
Dew Point: 63°F , 17°C
Humidity: 78%
Barometer: 29.81 inHg , 1009.5 hPa
Clouds: Overcast
Visibility: 10 miles , 16 km
Cloud details: Overcast 1900 ft
2021/04/12 14:53 KAUS 121453Z 19009G21KT 10SM OVC019 21/17 A2981 RMK AO2 SLP089 T02060172 51016
KILE - Killeen Muni, Texas, USA
Distance from station: N 36mi, 58km
Updated: Mon, 12-Apr-2021 9:56am CDT
Clear
Clear
 Wind from SSE
Wind: SSE 9 mph , 15 km/h
Temperature: 72°F , 22°C
Dew Point: 61°F , 16°C
Humidity: 69%
Barometer: 29.81 inHg , 1009.5 hPa
Clouds: Clear
Visibility: 10 miles , 16 km
2021/04/12 14:56 KILE 121456Z AUTO 16008KT 10SM CLR 22/16 A2981 RMK AO2 SLP083 T02170161 51016
 
KGRK - Gray/Ft Hood, Texas, USA
Distance from station: NNW 38mi, 62km
Updated: Mon, 12-Apr-2021 9:56am CDT
Clear
Clear
 Wind from SSE
Wind: SSE 13 mph , 20 km/h
Temperature: 72°F , 22°C
Dew Point: 61°F , 16°C
Humidity: 69%
Barometer: 29.79 inHg , 1008.8 hPa
Clouds: Clear
Visibility: 10 miles , 16 km
2021/04/12 14:56 KGRK 121456Z AUTO 16011KT 10SM CLR 22/16 A2979 RMK AO2 SLP079 T02160159 52017
KBMQ - Burnet, Texas, USA
Distance from station: WNW 39mi, 64km
Updated: Mon, 12-Apr-2021 9:53am CDT

 Wind from S
Wind: S 12 mph , 19 km/h, Gust: 23 mph , 37 km/h
Temperature: 70°F , 21°C
Dew Point: 61°F , 16°C
Humidity: 73%
Barometer: 29.82 inHg , 1009.8 hPa
Visibility: 8 miles , 13 km
2021/04/12 14:53 KBMQ 121453Z AUTO 19010G20KT 8SM 21/16 A2982 RMK AO2 SLP083 T02060156 51014 $
 
KHLR - Ft Hood/Killeen, Texas, USA
Distance from station: N 41mi, 66km
Updated: Mon, 12-Apr-2021 9:58am CDT
Clear
Clear
 Wind from S
Wind: S 10 mph , 17 km/h
Temperature: 72°F , 22°C
Dew Point: 61°F , 16°C
Humidity: 69%
Barometer: 29.80 inHg , 1009.1 hPa
Clouds: Clear
Visibility: 10 miles , 16 km
2021/04/12 14:58 KHLR 121458Z AUTO 17009KT 10SM CLR 22/16 A2980 RMK AO2 SLP082 T02210161 52017
KTPL - Temple/Miller, Texas, USA
Distance from station: NNE 42mi, 68km
Updated: Mon, 12-Apr-2021 10:13am CDT
Mostly cloudy
Mostly cloudy
 Wind from S
Wind: S 20 mph , 31 km/h, Gust: 26 mph , 43 km/h
Temperature: 73°F , 23°C
Dew Point: 64°F , 18°C
Humidity: 74%
Barometer: 29.81 inHg , 1009.5 hPa
Clouds: Mostly cloudy
Visibility: 10 miles , 16 km
Cloud details: Mostly cloudy 1500 ft
2021/04/12 15:13 KTPL 121513Z AUTO 17017G23KT 10SM BKN015 23/18 A2981 RMK AO2
 
KT35 - Cameron, Texas, USA
Distance from station: ENE 45mi, 72km
Updated: Mon, 12-Apr-2021 3:55am CDT
NOT Current
Clear
Clear
 Wind from S
Wind: S 5 mph , 7 km/h
Temperature: 63°F , 17°C
Dew Point: 55°F , 13°C
Humidity: 77%
Barometer: 29.74 inHg , 1007.1 hPa
Clouds: Clear
Visibility: 10 miles , 16 km
2021/04/12 08:55 KT35 120855Z AUTO 18004KT 10SM CLR 17/13 A2974 RMK AO2 T01650127
KDZB - Horseshoe Bay, Texas, USA
Distance from station: W 45mi, 73km
Updated: Mon, 12-Apr-2021 10:35am CDT
Clear
Clear
 Wind from SSE
Wind: SSE 9 mph , 15 km/h, Gust: 18 mph , 30 km/h
Temperature: 73°F , 23°C
Dew Point: 61°F , 16°C
Humidity: 65%
Barometer: 29.83 inHg , 1010.2 hPa
Clouds: Clear
Visibility: 10 miles , 16 km
2021/04/12 15:35 KDZB 121535Z AUTO 16008G16KT 10SM CLR 23/16 A2983 RMK AO2 T02260155
 
KGYB - Giddings-Lee, Texas, USA
Distance from station: SE 45mi, 73km
Updated: Mon, 12-Apr-2021 10:35am CDT
Overcast
Overcast
 Wind from S
Wind: S 10 mph , 17 km/h
Temperature: 72°F , 22°C
Dew Point: 64°F , 18°C
Humidity: 78%
Barometer: 29.84 inHg , 1010.5 hPa
Clouds: Overcast
Visibility: 7 miles , 11 km
Cloud details: Overcast 1500 ft
2021/04/12 15:35 KGYB 121535Z AUTO 19009KT 7SM OVC015 22/18 A2984 RMK AO2 T02150181
KHYI - San Marcos, Texas, USA
Distance from station: SSW 48mi, 78km
Updated: Mon, 12-Apr-2021 9:56am CDT
Overcast
Overcast
 Wind from S
Wind: S 10 mph , 17 km/h
Temperature: 72°F , 22°C
Dew Point: 66°F , 19°C
Humidity: 83%
Barometer: 29.83 inHg , 1010.2 hPa
Clouds: Overcast
Visibility: 10 miles , 16 km
Cloud details: Overcast 2200 ft
2021/04/12 14:56 KHYI 121456Z 19009KT 10SM OVC022 22/19 A2983 RMK AO2 SLP093 T02170189 51018
 
KLZZ - Lampasas, Texas, USA
Distance from station: NW 52mi, 84km
Updated: Mon, 12-Apr-2021 8:35am CDT
NOT Current
Clear
Clear
 Wind from S
Wind: S 6 mph , 9 km/h
Temperature: 64°F , 18°C
Dew Point: 59°F , 15°C
Humidity: 83%
Barometer: 29.77 inHg , 1008.1 hPa
Clouds: Clear
Visibility: 7 miles , 11 km
2021/04/12 13:35 KLZZ 121335Z AUTO 19005KT 7SM CLR 18/15 A2977 RMK AO2 T01760152
KRWV - Caldwell, Texas, USA
Distance from station: E 54mi, 87km
Updated: Mon, 12-Apr-2021 10:35am CDT
Mostly cloudy
Mostly cloudy
 Wind from SSW
Wind: SSW 13 mph , 20 km/h, Gust: 18 mph , 30 km/h
Temperature: 75°F , 24°C
Dew Point: 64°F , 18°C
Humidity: 69%
Barometer: 29.85 inHg , 1010.8 hPa
Clouds: Mostly cloudy
Visibility: 10 miles , 16 km
Cloud details: Mostly cloudy 2000 ft
Mostly cloudy 2500 ft
2021/04/12 15:35 KRWV 121535Z AUTO 20011G16KT 10SM BKN020 BKN025 24/18 A2985 RMK AO2 T02400178
 
K3T5 - La Grange, Texas, USA
Distance from station: SE 59mi, 95km
Updated: Mon, 12-Apr-2021 10:35am CDT
Overcast
Overcast
 Wind from S
Wind: S 7 mph , 11 km/h
Temperature: 73°F , 23°C
Dew Point: 68°F , 20°C
Humidity: 83%
Barometer: 29.82 inHg , 1009.8 hPa
Clouds: Overcast
Visibility: 7 miles , 11 km
Cloud details: Overcast 1500 ft
2021/04/12 15:35 K3T5 121535Z AUTO 19006KT 7SM OVC015 23/20 A2982 RMK AO2 T02320203
KGOP - Gatesville, Texas, USA
Distance from station: N 61mi, 99km
Updated: Mon, 12-Apr-2021 10:35am CDT
Clear
Clear
 Wind from S
Wind: S 8 mph , 13 km/h
Temperature: 73°F , 23°C
Dew Point: 61°F , 16°C
Humidity: 65%
Barometer: 29.83 inHg , 1010.2 hPa
Clouds: Clear
Visibility: 10 miles , 16 km
2021/04/12 15:35 KGOP 121535Z AUTO 17007KT 10SM CLR 23/16 A2983 RMK AO2
 
KLHB - Hearne Muni, Texas, USA
Distance from station: ENE 63mi, 101km
Updated: Mon, 12-Apr-2021 10:35am CDT
Clear
Clear
 Wind from calm
Wind: Calm
Temperature: 70°F , 21°C
Dew Point: 63°F , 17°C
Humidity: 78%
Barometer: 29.86 inHg , 1011.2 hPa
Clouds: Clear
Visibility: 10 miles , 16 km
2021/04/12 15:35 KLHB 121535Z AUTO 00000KT 10SM CLR 21/17 A2986 RMK AO2 T02130165
KBAZ - New Braunfels, Texas, USA
Distance from station: SSW 63mi, 102km
Updated: Mon, 12-Apr-2021 9:51am CDT
Overcast
Overcast
 Wind from SSW
Wind: SSW 12 mph , 19 km/h
Temperature: 73°F , 23°C
Dew Point: 64°F , 18°C
Humidity: 74%
Barometer: 29.81 inHg , 1009.5 hPa
Clouds: Overcast
Visibility: 8 miles , 13 km
Cloud details: Overcast 2600 ft
2021/04/12 14:51 KBAZ 121451Z 20010KT 8SM OVC026 23/18 A2981 RMK AO2 SLP088 T02280178 51017